Volgo-don 159 — VD159 — position and weather

sailwx.info

Track history (hours):
 
Tides and Currents Weather Stations Pressure Air Temp Water Temp Dewpoint Dewpoint Depression Visibility Wind Speed Wind Dir Waves Ship Positions

Volgo-don 159

Last reported at 2018-Jul-03 19:05 UTC. Time now 2018-Jul-21 07:48 UTC.
Position N 56°10' E 044°14'.
Warning: this ship's position is 17 days out of date.

Length 138 m; draft 3 m.

Type: Cargo ship. MMSI: 273344210.

Date/timePositionNaut miles runAvg speedWind from/ knotsBaromVisibWave heightAir tempDewpointWater temp
2018-Jul-03 19:05N 56°10' E 044°14'1 7.7
2018-Jul-03 19:00N 56°10' E 044°13'5 7.6
2018-Jul-03 18:19N 56°15' E 044°11'2 5.3
2018-Jul-03 18:00N 56°16' E 044°10'0 0.0
2018-Jul-03 17:30N 56°16' E 044°10'0 0.0
2018-Jul-03 17:00N 56°16' E 044°10'0 0.0
2018-Jul-03 16:30N 56°16' E 044°10'0 0.0
2018-Jul-03 16:00N 56°16' E 044°10'0 0.0
2018-Jul-03 15:29N 56°16' E 044°10'0 0.0
2018-Jul-03 15:00N 56°16' E 044°10'1 1.5
2018-Jul-03 14:30N 56°17' E 044°09'4 8.0
2018-Jul-03 14:01N 56°20' E 044°05'4 7.3
2018-Jul-03 13:30N 56°20' E 043°58'4 7.8
2018-Jul-03 13:01N 56°23' E 043°53'4 7.2
2018-Jul-03 12:30N 56°25' E 043°47'4 7.8
2018-Jul-03 12:00N 56°27' E 043°42'4 8.3
2018-Jul-03 11:30N 56°30' E 043°37'4 7.7
2018-Jul-03 10:55N 56°34' E 043°32'7 0.8
2018-Jul-03 02:08N 56°41' E 043°26'0 0.0
2018-Jul-03 01:53N 56°41' E 043°26'0 0.0
2018-Jul-03 01:19N 56°41' E 043°26'  
Track history (hours):
 
Tides and Currents Weather Stations Pressure Air Temp Water Temp Dewpoint Dewpoint Depression Visibility Wind Speed Wind Dir Waves Ship Positions

Volgo-don 159

Last reported at 2018-Jul-03 19:05 UTC. Time now 2018-Jul-21 07:48 UTC.
Position N 56°10' E 044°14'.
Warning: this ship's position is 17 days out of date.

Length 138 m; draft 3 m.

Type: Cargo ship. MMSI: 273344210.

Date/timePositionNaut miles runAvg speedWind from/ knotsBaromVisibWave heightAir tempDewpointWater temp
2018-Jul-03 19:05N 56°10' E 044°14'1 7.7
2018-Jul-03 19:00N 56°10' E 044°13'5 7.6
2018-Jul-03 18:19N 56°15' E 044°11'2 5.3
2018-Jul-03 18:00N 56°16' E 044°10'0 0.0
2018-Jul-03 17:30N 56°16' E 044°10'0 0.0
2018-Jul-03 17:00N 56°16' E 044°10'0 0.0
2018-Jul-03 16:30N 56°16' E 044°10'0 0.0
2018-Jul-03 16:00N 56°16' E 044°10'0 0.0
2018-Jul-03 15:29N 56°16' E 044°10'0 0.0
2018-Jul-03 15:00N 56°16' E 044°10'1 1.5
2018-Jul-03 14:30N 56°17' E 044°09'4 8.0
2018-Jul-03 14:01N 56°20' E 044°05'4 7.3
2018-Jul-03 13:30N 56°20' E 043°58'4 7.8
2018-Jul-03 13:01N 56°23' E 043°53'4 7.2
2018-Jul-03 12:30N 56°25' E 043°47'4 7.8
2018-Jul-03 12:00N 56°27' E 043°42'4 8.3
2018-Jul-03 11:30N 56°30' E 043°37'4 7.7
2018-Jul-03 10:55N 56°34' E 043°32'7 0.8
2018-Jul-03 02:08N 56°41' E 043°26'0 0.0
2018-Jul-03 01:53N 56°41' E 043°26'0 0.0
2018-Jul-03 01:19N 56°41' E 043°26'  

Dump ship's entire track history